Time,TemperatureF,DewpointF,PressureIn,WindDirection,WindDirectionDegrees,WindSpeedMPH,WindSpeedGustMPH,Humidity,HourlyPrecipIn,Conditions,Clouds,dailyrainin,SoftwareType,DateUTC
2013-07-12 00:00:00,64.5,60.0,29.97,North,5,0.0,1.0,86,0.00,,,0.00,weatherlink.com 1.10,2013-07-12 04:00:00,
2013-07-12 00:15:00,63.9,60.0,29.98,North,5,1.0,2.0,87,0.00,,,0.00,weatherlink.com 1.10,2013-07-12 04:15:00,
2013-07-12 00:30:00,63.8,60.0,29.98,North,9,3.0,4.0,86,0.00,,,0.00,weatherlink.com 1.10,2013-07-12 04:30:00,
2013-07-12 00:45:00,64.1,60.0,29.99,NE,39,1.0,3.0,86,0.00,,,0.00,weatherlink.com 1.10,2013-07-12 04:45:00,
2013-07-12 01:00:00,64.4,60.0,29.99,ENE,59,2.0,4.0,85,0.00,,,0.00,weatherlink.com 1.10,2013-07-12 05:00:00,
2013-07-12 01:22:00,64.0,59.0,29.99,ENE,58,0.0,1.0,84,0.00,,,0.00,weatherlink.com 1.10,2013-07-12 05:22:00,
2013-07-12 01:30:00,63.8,59.0,29.99,ENE,59,0.0,3.0,84,0.00,,,0.00,weatherlink.com 1.10,2013-07-12 05:30:00,
2013-07-12 01:45:00,63.6,59.0,29.99,NE,56,0.0,2.0,84,0.00,,,0.00,weatherlink.com 1.10,2013-07-12 05:45:00,
2013-07-12 02:00:00,63.4,59.0,30.00,NE,56,0.0,1.0,85,0.00,,,0.00,weatherlink.com 1.10,2013-07-12 06:00:00,
2013-07-12 02:15:00,63.1,59.0,30.00,NE,56,1.0,2.0,85,0.00,,,0.00,weatherlink.com 1.10,2013-07-12 06:15:00,
2013-07-12 02:30:00,62.3,58.0,30.00,North,355,1.0,4.0,86,0.00,,,0.00,weatherlink.com 1.10,2013-07-12 06:30:00,
2013-07-12 02:45:00,62.3,58.0,30.01,NNE,15,1.0,4.0,86,0.00,,,0.00,weatherlink.com 1.10,2013-07-12 06:45:00,
2013-07-12 03:00:00,62.3,58.0,30.01,NNE,26,1.0,3.0,86,0.00,,,0.00,weatherlink.com 1.10,2013-07-12 07:00:00,
2013-07-12 03:15:00,62.2,58.0,30.01,NNE,30,2.0,3.0,86,0.00,,,0.00,weatherlink.com 1.10,2013-07-12 07:15:00,
2013-07-12 03:30:00,62.2,58.0,30.01,NNE,30,0.0,3.0,86,0.00,,,0.00,weatherlink.com 1.10,2013-07-12 07:30:00,
2013-07-12 03:45:00,61.8,58.0,30.01,NNE,30,0.0,1.0,86,0.00,,,0.00,weatherlink.com 1.10,2013-07-12 07:45:00,
2013-07-12 04:00:00,61.1,57.0,30.01,NNE,30,0.0,1.0,87,0.00,,,0.00,weatherlink.com 1.10,2013-07-12 08:00:00,
2013-07-12 04:15:00,60.5,57.0,30.01,NNE,33,0.0,1.0,88,0.00,,,0.00,weatherlink.com 1.10,2013-07-12 08:15:00,
2013-07-12 04:30:00,60.2,57.0,30.01,NE,37,0.0,1.0,89,0.00,,,0.00,weatherlink.com 1.10,2013-07-12 08:30:00,
2013-07-12 04:45:00,59.6,56.0,30.02,NE,37,0.0,0.0,89,0.00,,,0.00,weatherlink.com 1.10,2013-07-12 08:45:00,
2013-07-12 05:00:00,59.0,56.0,30.02,NE,37,0.0,0.0,90,0.00,,,0.00,weatherlink.com 1.10,2013-07-12 09:00:00,
2013-07-12 05:15:00,59.0,56.0,30.03,NE,37,0.0,0.0,91,0.00,,,0.00,weatherlink.com 1.10,2013-07-12 09:15:00,
2013-07-12 05:30:00,58.6,56.0,30.03,NE,37,1.0,2.0,91,0.00,,,0.00,weatherlink.com 1.10,2013-07-12 09:30:00,
2013-07-12 05:45:00,58.4,56.0,30.04,North,11,2.0,3.0,91,0.00,,,0.00,weatherlink.com 1.10,2013-07-12 09:45:00,
2013-07-12 06:00:00,58.3,56.0,30.05,NNW,336,0.0,4.0,92,0.00,,,0.00,weatherlink.com 1.10,2013-07-12 10:00:00,
2013-07-12 06:16:00,58.0,56.0,30.06,NNW,332,1.0,3.0,92,0.00,,,0.00,weatherlink.com 1.10,2013-07-12 10:16:00,
2013-07-12 06:30:00,58.0,55.7,30.06,NNW,338,1.0,3.0,92,0.00,,SKC,0.00,VWS V14.01,2013-07-12 10:30:00,
2013-07-12 06:31:00,58.0,56.0,30.06,NNW,332,1.0,2.0,92,0.00,,,0.00,weatherlink.com 1.10,2013-07-12 10:31:00,
2013-07-12 06:46:00,58.2,56.0,30.06,NNW,331,1.0,4.0,93,0.00,,,0.00,weatherlink.com 1.10,2013-07-12 10:46:00,
2013-07-12 07:00:00,59.0,57.0,30.06,NNW,338,1.0,4.0,93,0.00,,SKC,0.00,VWS V14.01,2013-07-12 11:00:00,
2013-07-12 07:01:00,59.0,57.0,30.06,NNW,338,3.0,3.0,93,0.00,,,0.00,weatherlink.com 1.10,2013-07-12 11:01:00,
2013-07-12 07:16:00,59.8,58.0,30.06,NNW,348,2.0,3.0,93,0.00,,,0.00,weatherlink.com 1.10,2013-07-12 11:16:00,
2013-07-12 07:30:00,61.0,59.0,30.06,NNW,338,1.0,4.0,93,0.00,,SKC,0.00,VWS V14.01,2013-07-12 11:30:00,
2013-07-12 07:31:00,61.0,59.0,30.06,North,5,1.0,4.0,93,0.00,,,0.00,weatherlink.com 1.10,2013-07-12 11:31:00,
2013-07-12 07:46:00,62.2,60.0,30.05,North,9,2.0,4.0,92,0.00,,,0.00,weatherlink.com 1.10,2013-07-12 11:46:00,
2013-07-12 08:00:00,63.3,60.6,30.06,North,0,2.0,4.0,91,0.00,,SKC,0.00,VWS V14.01,2013-07-12 12:00:00,
2013-07-12 08:01:00,63.2,61.0,30.06,NE,40,0.0,4.0,91,0.00,,,0.00,weatherlink.com 1.10,2013-07-12 12:01:00,
2013-07-12 08:16:00,64.5,61.0,30.07,NE,37,5.0,6.0,89,0.00,,,0.00,weatherlink.com 1.10,2013-07-12 12:16:00,
2013-07-12 08:30:00,64.3,60.3,30.07,NNE,22,3.0,10.0,87,0.00,,SKC,0.00,VWS V14.01,2013-07-12 12:30:00,
2013-07-12 08:31:00,64.3,60.0,30.07,NNE,29,1.0,9.0,87,0.00,,,0.00,weatherlink.com 1.10,2013-07-12 12:31:00,
2013-07-12 08:46:00,65.0,60.0,30.07,NE,47,5.0,8.0,85,0.00,,,0.00,weatherlink.com 1.10,2013-07-12 12:46:00,
2013-07-12 09:00:00,65.3,60.3,30.08,NE,45,4.0,10.0,84,0.00,,SKC,0.00,VWS V14.01,2013-07-12 13:00:00,
2013-07-12 09:01:00,65.2,60.0,30.08,ENE,58,6.0,10.0,84,0.00,,,0.00,weatherlink.com 1.10,2013-07-12 13:01:00,
2013-07-12 09:16:00,65.6,61.0,30.08,NE,42,6.0,12.0,84,0.00,,,0.00,weatherlink.com 1.10,2013-07-12 13:16:00,
2013-07-12 09:30:00,66.1,61.1,30.08,NE,45,6.0,12.0,84,0.00,,SKC,0.00,VWS V14.01,2013-07-12 13:30:00,
2013-07-12 09:31:00,66.1,61.0,30.08,ENE,59,5.0,12.0,84,0.00,,,0.00,weatherlink.com 1.10,2013-07-12 13:31:00,
2013-07-12 09:46:00,66.9,62.0,30.09,North,5,4.0,10.0,83,0.00,,,0.00,weatherlink.com 1.10,2013-07-12 13:46:00,
2013-07-12 10:00:00,67.2,60.8,30.09,NE,45,5.0,10.0,80,0.00,,SKC,0.00,VWS V14.01,2013-07-12 14:00:00,
2013-07-12 10:01:00,67.2,61.0,30.09,North,360,3.0,10.0,80,0.00,,,0.00,weatherlink.com 1.10,2013-07-12 14:01:00,
2013-07-12 10:16:00,67.4,61.0,30.08,NE,54,7.0,10.0,80,0.00,,,0.00,weatherlink.com 1.10,2013-07-12 14:16:00,
2013-07-12 10:30:00,68.0,61.2,30.08,NE,45,6.0,14.0,79,0.00,,SKC,0.00,VWS V14.01,2013-07-12 14:30:00,
2013-07-12 10:31:00,68.0,61.0,30.08,NE,56,5.0,10.0,79,0.00,,,0.00,weatherlink.com 1.10,2013-07-12 14:31:00,
2013-07-12 10:46:00,67.9,62.0,30.08,ENE,57,7.0,11.0,80,0.00,,,0.00,weatherlink.com 1.10,2013-07-12 14:46:00,
2013-07-12 11:00:00,69.5,62.0,30.08,NE,45,5.0,12.0,77,0.00,,SKC,0.00,VWS V14.01,2013-07-12 15:00:00,
2013-07-12 11:01:00,69.5,62.0,30.08,East,79,3.0,10.0,77,0.00,,,0.00,weatherlink.com 1.10,2013-07-12 15:01:00,
2013-07-12 11:16:00,70.3,62.0,30.07,NNE,31,3.0,11.0,76,0.00,,,0.00,weatherlink.com 1.10,2013-07-12 15:16:00,
2013-07-12 11:30:00,71.7,61.4,30.08,NE,45,4.0,12.0,70,0.00,,SKC,0.00,VWS V14.01,2013-07-12 15:30:00,
2013-07-12 11:31:00,71.7,61.0,30.07,North,355,9.0,11.0,70,0.00,,,0.00,weatherlink.com 1.10,2013-07-12 15:31:00,
2013-07-12 11:46:00,72.0,61.0,30.07,NNE,24,5.0,11.0,68,0.00,,,0.00,weatherlink.com 1.10,2013-07-12 15:46:00,
2013-07-12 12:00:00,72.5,61.8,30.07,NE,45,5.0,11.0,69,0.00,,SKC,0.00,VWS V14.01,2013-07-12 16:00:00,
2013-07-12 12:01:00,72.5,62.0,30.07,NE,52,3.0,10.0,69,0.00,,,0.00,weatherlink.com 1.10,2013-07-12 16:01:00,
2013-07-12 12:16:00,72.9,60.0,30.07,North,360,6.0,11.0,65,0.00,,,0.00,weatherlink.com 1.10,2013-07-12 16:16:00,
2013-07-12 12:30:00,73.2,60.7,30.07,NNE,22,5.0,12.0,65,0.00,,SKC,0.00,VWS V14.01,2013-07-12 16:30:00,
2013-07-12 12:31:00,73.2,61.0,30.07,NNE,19,8.0,9.0,65,0.00,,,0.00,weatherlink.com 1.10,2013-07-12 16:31:00,
2013-07-12 12:46:00,73.9,60.0,30.06,ENE,59,9.0,11.0,63,0.00,,,0.00,weatherlink.com 1.10,2013-07-12 16:46:00,
2013-07-12 13:00:00,74.3,60.5,30.06,NNE,22,5.0,13.0,62,0.00,,SKC,0.00,VWS V14.01,2013-07-12 17:00:00,
2013-07-12 13:01:00,74.3,61.0,30.06,NE,41,1.0,13.0,63,0.00,,,0.00,weatherlink.com 1.10,2013-07-12 17:01:00,
2013-07-12 13:30:00,74.6,62.5,30.05,NE,45,6.0,13.0,66,0.00,,SKC,0.00,VWS V14.01,2013-07-12 17:30:00,
2013-07-12 13:31:00,74.6,62.0,30.05,ENE,59,5.0,13.0,64,0.00,,,0.00,weatherlink.com 1.10,2013-07-12 17:31:00,
2013-07-12 13:47:00,74.7,63.0,30.05,NE,38,10.0,13.0,66,0.00,,,0.00,weatherlink.com 1.10,2013-07-12 17:47:00,
2013-07-12 14:00:00,74.9,63.2,30.06,NE,45,7.0,13.0,67,0.00,,SKC,0.00,VWS V14.01,2013-07-12 18:00:00,
2013-07-12 14:01:00,74.9,63.0,30.06,NE,44,9.0,11.0,67,0.00,,,0.00,weatherlink.com 1.10,2013-07-12 18:01:00,
2013-07-12 14:16:00,75.4,63.0,30.05,NE,55,7.0,12.0,66,0.00,,,0.00,weatherlink.com 1.10,2013-07-12 18:16:00,
2013-07-12 14:30:00,75.4,63.7,30.05,NE,45,6.0,12.0,67,0.00,,SKC,0.00,VWS V14.01,2013-07-12 18:30:00,
2013-07-12 14:31:00,75.4,64.0,30.05,NE,46,5.0,11.0,67,0.00,,,0.00,weatherlink.com 1.10,2013-07-12 18:31:00,
2013-07-12 14:47:00,76.3,65.0,30.05,East,85,1.0,8.0,67,0.00,,,0.00,weatherlink.com 1.10,2013-07-12 18:47:00,
2013-07-12 15:00:00,76.1,63.0,30.05,ENE,68,4.0,13.0,64,0.00,,SKC,0.00,VWS V14.01,2013-07-12 19:00:00,
2013-07-12 15:02:00,76.1,63.0,30.05,ENE,57,4.0,11.0,64,0.00,,,0.00,weatherlink.com 1.10,2013-07-12 19:02:00,
2013-07-12 15:17:00,77.1,64.0,30.04,North,360,6.0,9.0,64,0.00,,,0.00,weatherlink.com 1.10,2013-07-12 19:17:00,
2013-07-12 15:30:00,77.0,64.3,30.05,NE,45,4.0,14.0,65,0.00,,SKC,0.00,VWS V14.01,2013-07-12 19:30:00,
2013-07-12 15:32:00,77.1,64.0,30.05,NE,37,9.0,14.0,65,0.00,,,0.00,weatherlink.com 1.10,2013-07-12 19:32:00,
2013-07-12 15:47:00,77.4,64.0,30.04,NE,42,3.0,13.0,63,0.00,,,0.00,weatherlink.com 1.10,2013-07-12 19:47:00,
2013-07-12 16:00:00,76.8,63.3,30.04,NE,45,6.0,15.0,63,0.00,,SKC,0.00,VWS V14.01,2013-07-12 20:00:00,
2013-07-12 16:02:00,76.9,62.0,30.04,NE,44,4.0,12.0,61,0.00,,,0.00,weatherlink.com 1.10,2013-07-12 20:02:00,
2013-07-12 16:17:00,77.7,63.0,30.04,NE,49,6.0,13.0,61,0.00,,,0.00,weatherlink.com 1.10,2013-07-12 20:17:00,
2013-07-12 16:30:00,76.7,62.7,30.03,NE,45,6.0,13.0,62,0.00,,SKC,0.00,VWS V14.01,2013-07-12 20:30:00,
2013-07-12 16:47:00,77.6,63.0,30.03,NNE,29,11.0,15.0,61,0.00,,,0.00,weatherlink.com 1.10,2013-07-12 20:47:00,
2013-07-12 17:00:00,76.7,62.2,30.03,NE,45,7.0,16.0,61,0.00,,SKC,0.00,VWS V14.01,2013-07-12 21:00:00,
2013-07-12 17:02:00,76.9,64.0,30.03,ENE,57,3.0,11.0,65,0.00,,,0.00,weatherlink.com 1.10,2013-07-12 21:02:00,
2013-07-12 17:17:00,77.4,62.0,30.03,ENE,63,8.0,14.0,60,0.00,,,0.00,weatherlink.com 1.10,2013-07-12 21:17:00,
2013-07-12 17:30:00,76.9,62.4,30.03,NE,45,6.0,14.0,61,0.00,,SKC,0.00,VWS V14.01,2013-07-12 21:30:00,
2013-07-12 17:32:00,76.8,62.0,30.03,NE,35,5.0,12.0,61,0.00,,,0.00,weatherlink.com 1.10,2013-07-12 21:32:00,
2013-07-12 18:00:00,77.3,61.9,30.03,NE,45,6.0,14.0,59,0.00,,SKC,0.00,VWS V14.01,2013-07-12 22:00:00,
2013-07-12 18:02:00,77.3,62.0,30.04,NE,52,6.0,14.0,59,0.00,,,0.00,weatherlink.com 1.10,2013-07-12 22:02:00,
2013-07-12 18:17:00,76.7,63.0,30.04,NNE,24,8.0,13.0,62,0.00,,,0.00,weatherlink.com 1.10,2013-07-12 22:17:00,
2013-07-12 18:30:00,77.2,61.8,30.03,NE,45,6.0,15.0,59,0.00,,SKC,0.00,VWS V14.01,2013-07-12 22:30:00,
2013-07-12 18:47:00,76.8,62.0,30.03,ENE,57,6.0,14.0,60,0.00,,,0.00,weatherlink.com 1.10,2013-07-12 22:47:00,
2013-07-12 19:00:00,76.5,61.6,30.02,NE,45,6.0,14.0,60,0.00,,SKC,0.00,VWS V14.01,2013-07-12 23:00:00,
2013-07-12 19:02:00,76.5,62.0,30.02,NE,42,5.0,11.0,61,0.00,,,0.00,weatherlink.com 1.10,2013-07-12 23:02:00,
2013-07-12 19:30:00,76.3,60.5,30.02,NE,45,5.0,12.0,58,0.00,,SKC,0.00,VWS V14.01,2013-07-12 23:30:00,
2013-07-12 19:32:00,76.2,61.0,30.02,NE,34,5.0,10.0,59,0.00,,,0.00,weatherlink.com 1.10,2013-07-12 23:32:00,
2013-07-12 19:47:00,75.5,61.0,30.03,NE,40,6.0,10.0,60,0.00,,,0.00,weatherlink.com 1.10,2013-07-12 23:47:00,
2013-07-12 20:00:00,74.8,60.5,30.03,NE,45,5.0,11.0,61,0.00,,SKC,0.00,VWS V14.01,2013-07-13 00:00:00,
2013-07-12 20:02:00,74.7,60.0,30.03,NNE,29,5.0,9.0,61,0.00,,,0.00,weatherlink.com 1.10,2013-07-13 00:02:00,
2013-07-12 20:17:00,74.1,60.0,30.03,ENE,57,4.0,10.0,62,0.00,,,0.00,weatherlink.com 1.10,2013-07-13 00:17:00,
2013-07-12 20:30:00,73.5,60.6,30.03,NE,45,3.0,10.0,64,0.00,,SKC,0.00,VWS V14.01,2013-07-13 00:30:00,
2013-07-12 20:32:00,73.5,60.0,30.03,NE,55,1.0,6.0,63,0.00,,,0.00,weatherlink.com 1.10,2013-07-13 00:32:00,
2013-07-12 21:00:00,72.5,60.5,30.04,NNE,22,1.0,4.0,66,0.00,,SKC,0.00,VWS V14.01,2013-07-13 01:00:00,
2013-07-12 21:02:00,72.5,60.0,30.04,NNE,24,1.0,4.0,66,0.00,,,0.00,weatherlink.com 1.10,2013-07-13 01:02:00,
2013-07-12 21:17:00,71.7,61.0,30.04,NNE,23,1.0,2.0,69,0.00,,,0.00,weatherlink.com 1.10,2013-07-13 01:17:00,
2013-07-12 21:30:00,70.6,61.1,30.05,NNE,22,0.0,3.0,72,0.00,,SKC,0.00,VWS V14.01,2013-07-13 01:30:00,
2013-07-12 21:32:00,70.5,61.0,30.04,NNE,23,0.0,1.0,73,0.00,,,0.00,weatherlink.com 1.10,2013-07-13 01:32:00,
2013-07-12 21:48:00,68.8,61.0,30.04,NNE,23,0.0,2.0,76,0.00,,,0.00,weatherlink.com 1.10,2013-07-13 01:48:00,
2013-07-12 22:00:00,68.3,61.2,30.04,NE,45,0.0,3.0,78,0.00,,SKC,0.00,VWS V14.01,2013-07-13 02:00:00,
2013-07-12 22:02:00,68.3,62.0,30.05,NE,47,0.0,3.0,79,0.00,,,0.00,weatherlink.com 1.10,2013-07-13 02:02:00,
2013-07-12 22:17:00,67.6,61.0,30.05,NE,49,0.0,2.0,78,0.00,,,0.00,weatherlink.com 1.10,2013-07-13 02:17:00,
2013-07-12 22:30:00,67.5,60.8,30.05,NE,45,0.0,3.0,79,0.00,,SKC,0.00,VWS V14.01,2013-07-13 02:30:00,
2013-07-12 22:32:00,67.4,61.0,30.05,NE,49,0.0,1.0,79,0.00,,,0.00,weatherlink.com 1.10,2013-07-13 02:32:00,
2013-07-12 22:47:00,66.8,60.0,30.05,NE,39,1.0,3.0,80,0.00,,,0.00,weatherlink.com 1.10,2013-07-13 02:47:00,
2013-07-12 23:00:00,66.5,60.2,30.05,NE,45,1.0,4.0,80,0.00,,SKC,0.00,VWS V14.01,2013-07-13 03:00:00,
2013-07-12 23:02:00,66.5,60.0,30.05,North,360,3.0,3.0,80,0.00,,,0.00,weatherlink.com 1.10,2013-07-13 03:02:00,
2013-07-12 23:17:00,66.2,60.0,30.05,NNE,31,0.0,4.0,80,0.00,,,0.00,weatherlink.com 1.10,2013-07-13 03:17:00,
2013-07-12 23:30:00,66.3,60.0,30.05,NNE,22,1.0,7.0,80,0.00,,SKC,0.00,VWS V14.01,2013-07-13 03:30:00,
2013-07-12 23:32:00,66.3,60.0,30.05,NNE,15,2.0,4.0,80,0.00,,,0.00,weatherlink.com 1.10,2013-07-13 03:32:00,
2013-07-12 23:47:00,66.2,60.0,30.05,North,355,4.0,4.0,81,0.00,,,0.00,weatherlink.com 1.10,2013-07-13 03:47:00,